Latest Weather Observations for Murganella Airstrip

IDD60801

Issued at 11:31 pm CST Sunday 24 September 2017 (issued every 30 minutes, with the page automatically refreshed every 10 minutes)

About weather observations | Map of weather stations | Latest weather observations for NT | Other Formats
Station Details ID: 014309 Name: MURGANELLA AIRSTRIP Lat: -11.55 Lon: 132.93 Height: 9.5 m
Data from the previous 72 hours. | See also: Recent months at Murganella Airstrip
Date/Time
CST
Temp
°C
App
Temp
°C
Dew
Point
°C
Rel
Hum
%
Delta-T
°C
Wind Press
QNH
hPa
Press
MSL
hPa
Rain since
9am
mm
Dir  Spd
km/h
Gust
km/h
Spd
kts
Gust
kts
24/11:30pm 22.8 26.7 20.3 86 1.6 CALM 0 0 0 0 1011.3 1011.2 0.0
24/11:00pm 23.0 26.9 20.3 85 1.7 CALM 0 0 0 0 1011.4 1011.3 0.0
24/10:30pm 23.4 27.4 20.5 84 1.9 CALM 0 0 0 0 1011.5 1011.4 0.0
24/10:00pm 23.7 27.9 21.0 85 1.8 CALM 0 0 0 0 1011.3 1011.2 0.0
24/09:30pm 24.2 28.3 20.7 81 2.3 CALM 0 0 0 0 1011.2 1011.1 0.0
24/09:00pm 24.7 28.8 20.8 79 2.6 CALM 0 0 0 0 1010.9 1010.8 0.0
24/08:30pm 25.3 29.5 21.0 77 2.8 CALM 0 0 0 0 1010.7 1010.6 0.0
24/08:00pm 25.6 29.8 21.7 79 2.6 N 2 4 1 2 1010.4 1010.3 0.0
24/07:30pm 26.1 30.3 21.7 77 2.9 N 2 4 1 2 1010.3 1010.2 0.0
24/07:00pm 26.5 30.0 21.9 76 3.1 NNE 6 11 3 6 1010.0 1009.9 0.0
24/06:30pm 27.0 30.2 21.7 73 3.5 NNE 7 15 4 8 1009.8 1009.7 0.0
24/06:00pm 27.9 30.4 21.7 69 4.2 NNE 11 20 6 11 1009.7 1009.6 0.0
24/05:30pm 28.4 30.9 21.7 67 4.5 NNE 11 20 6 11 1009.5 1009.4 0.0
24/05:00pm 29.3 31.0 21.0 61 5.5 NNE 13 26 7 14 1009.5 1009.4 0.0
24/04:30pm 29.3 31.0 21.0 61 5.5 NE 13 19 7 10 1009.5 1009.4 0.0
24/04:00pm 30.1 32.3 21.2 59 6.0 NNE 11 19 6 10 1009.6 1009.5 0.0
24/03:30pm 30.1 31.6 20.6 56 6.3 NE 13 22 7 12 1009.8 1009.7 0.0
24/03:00pm 31.8 33.5 21.0 52 7.2 NNE 13 20 7 11 1009.8 1009.7 0.0
24/02:30pm 31.3 33.4 20.9 54 7.0 NE 11 19 6 10 1010.0 1009.9 0.0
24/02:00pm 31.5 32.9 20.4 51 7.4 NNE 13 24 7 13 1010.2 1010.1 0.0
24/01:30pm 31.6 33.1 20.5 51 7.4 NE 13 22 7 12 1010.5 1010.4 0.0
24/01:00pm 31.6 32.9 20.8 52 7.2 NE 15 26 8 14 1011.0 1010.9 0.0
24/12:30pm 31.8 33.0 20.7 51 7.4 NNE 15 30 8 16 1011.4 1011.3 0.0
24/12:00pm 32.1 33.7 20.7 51 7.6 NE 13 22 7 12 1011.8 1011.7 0.0
24/11:30am 31.6 34.2 21.2 54 7.0 E 9 19 5 10 1012.2 1012.1 0.0
24/11:00am 31.8 33.9 21.0 52 7.2 ENE 11 17 6 9 1012.5 1012.4 0.0
24/10:30am 31.4 34.4 21.3 55 6.8 NE 7 17 4 9 1012.6 1012.5 0.0
24/10:00am 29.9 33.8 21.8 62 5.5 NE 4 9 2 5 1013.0 1012.9 0.0
24/09:30am 29.8 33.4 22.0 63 5.3 NE 6 13 3 7 1013.4 1013.3 0.0
24/09:00am 28.2 32.5 22.0 69 4.2 SSE 2 7 1 4 1013.2 1013.1 0.0
24/08:30am 27.9 32.1 23.1 75 3.3 SSE 6 11 3 6 1013.1 1013.0 0.0
24/08:00am 25.1 29.2 22.2 84 1.9 S 4 7 2 4 1012.8 1012.7 0.0
24/07:30am 23.2 27.2 22.0 93 0.8 SSW 4 6 2 3 1012.6 1012.5 0.0
24/07:00am 21.3 24.6 19.9 92 0.9 SSW 2 2 1 1 1012.4 1012.3 0.0
24/06:30am 20.6 23.8 18.9 90 1.1 CALM 0 0 0 0 1012.2 1012.1 0.0
24/06:00am 21.1 24.6 19.6 91 1.0 CALM 0 0 0 0 1012.0 1011.9 0.0
24/05:30am 20.9 24.3 19.4 91 1.0 CALM 0 0 0 0 1012.0 1011.9 0.0
24/05:00am 20.6 23.9 19.1 91 0.9 CALM 0 0 0 0 1011.5 1011.4 0.0
24/04:30am 20.5 23.4 18.3 87 1.4 CALM 0 0 0 0 1011.2 1011.1 0.0
24/04:00am 20.8 23.9 18.7 88 1.3 CALM 0 0 0 0 1011.1 1011.0 0.0
24/03:30am 21.0 24.2 18.8 87 1.4 CALM 0 0 0 0 1011.3 1011.2 0.0
24/03:00am 21.4 24.8 19.3 88 1.3 CALM 0 0 0 0 1011.4 1011.3 0.0
24/02:30am 21.3 24.7 19.4 89 1.2 CALM 0 0 0 0 1011.5 1011.4 0.0
24/02:00am 21.2 24.4 18.9 87 1.4 CALM 0 0 0 0 1011.6 1011.5 0.0
24/01:30am 21.4 24.7 19.1 87 1.5 CALM 0 0 0 0 1011.9 1011.8 0.0
24/01:00am 21.7 25.1 19.4 87 1.5 CALM 0 0 0 0 1012.1 1012.0 0.0
24/12:30am 21.9 25.4 19.6 87 1.5 CALM 0 0 0 0 1012.3 1012.2 0.0
24/12:00am 22.1 25.6 19.6 86 1.6 CALM 0 0 0 0 1012.5 1012.4 0.0
 
Date/Time
CST
Temp
°C
App
Temp
°C
Dew
Point
°C
Rel
Hum
%
Delta-T
°C
Wind Press
QNH
hPa
Press
MSL
hPa
Rain since
9am
mm
Dir  Spd
km/h
Gust
km/h
Spd
kts
Gust
kts
23/11:30pm 22.3 25.9 19.7 85 1.7 CALM 0 0 0 0 1012.7 1012.6 0.0
23/11:00pm 22.6 26.2 19.8 84 1.8 CALM 0 0 0 0 1012.8 1012.7 0.0
23/10:30pm 23.0 26.6 19.8 82 2.1 CALM 0 0 0 0 1012.8 1012.7 0.0
23/10:00pm 23.4 27.5 20.7 85 1.8 CALM 0 0 0 0 1012.5 1012.4 0.0
23/09:30pm 23.8 27.5 19.9 79 2.5 CALM 0 0 0 0 1012.0 1011.9 0.0
23/09:00pm 24.4 28.3 21.1 82 2.2 N 2 4 1 2 1011.7 1011.6 0.0
23/08:30pm 24.8 28.6 21.7 83 2.1 N 4 6 2 3 1011.4 1011.3 0.0
23/08:00pm 25.2 29.0 21.7 81 2.3 NNE 4 6 2 3 1011.2 1011.1 0.0
23/07:30pm 25.7 29.5 21.6 78 2.7 NNE 4 7 2 4 1011.0 1010.9 0.0
23/07:00pm 26.2 29.5 21.4 75 3.2 NE 6 11 3 6 1010.9 1010.8 0.0
23/06:30pm 26.8 29.7 21.8 74 3.3 NE 9 19 5 10 1010.8 1010.7 0.0
23/06:00pm 27.8 29.8 21.6 69 4.1 NNE 13 22 7 12 1010.7 1010.6 0.0
23/05:30pm 29.3 31.7 21.5 63 5.2 NE 11 19 6 10 1010.7 1010.6 0.0
23/05:00pm 29.8 32.0 21.2 60 5.7 NE 11 17 6 9 1010.5 1010.4 0.0
23/04:30pm 30.3 32.1 21.1 58 6.2 NE 13 22 7 12 1010.4 1010.3 0.0
23/04:00pm 30.7 32.0 20.9 56 6.5 NE 15 22 8 12 1010.5 1010.4 0.0
23/03:30pm 31.4 33.1 21.0 54 7.0 ENE 13 24 7 13 1010.5 1010.4 0.0
23/03:00pm 31.7 33.2 21.2 53 7.1 NE 15 26 8 14 1010.6 1010.5 0.0
23/02:30pm 31.7 33.2 21.2 53 7.1 NE 15 22 8 12 1011.0 1010.9 0.0
23/02:00pm 32.6 35.0 21.5 52 7.5 NE 11 20 6 11 1011.3 1011.2 0.0
23/01:30pm 33.2 35.3 21.0 48 8.2 NE 11 26 6 14 1011.6 1011.5 0.0
23/01:00pm 32.5 34.6 21.0 50 7.7 ENE 11 19 6 10 1011.9 1011.8 0.0
23/12:30pm 32.7 34.0 20.2 47 8.3 ENE 13 22 7 12 1012.4 1012.3 0.0
23/12:00pm 31.8 33.2 20.4 51 7.6 E 13 28 7 15 1012.9 1012.8 0.0
23/11:30am 31.7 33.4 20.9 52 7.2 ENE 13 24 7 13 1013.4 1013.3 0.0
23/11:00am 31.8 32.7 20.1 50 7.7 ENE 15 28 8 15 1013.4 1013.3 0.0
23/10:30am 32.3 34.4 20.9 51 7.6 E 11 19 6 10 1013.5 1013.4 0.0
23/10:00am 31.0 32.9 20.6 54 6.9 ESE 11 17 6 9 1013.7 1013.6 0.0
23/09:30am 30.1 33.3 21.7 60 5.7 ESE 7 13 4 7 1013.8 1013.7 0.0
23/09:00am 28.6 32.3 22.3 68 4.3 ESE 6 11 3 6 1013.9 1013.8 0.0
23/08:30am 27.6 31.5 23.0 76 3.1 SSE 7 11 4 6 1013.9 1013.8 0.0
23/08:00am 26.4 30.7 23.3 83 2.1 S 6 13 3 7 1013.6 1013.5 0.0
23/07:30am 24.2 28.5 22.6 91 1.1 SSW 4 6 2 3 1013.3 1013.2 0.0
23/07:00am 23.0 27.7 22.0 94 0.7 CALM 0 2 0 1 1013.1 1013.0 0.0
23/06:30am 22.5 26.9 21.3 93 0.8 CALM 0 0 0 0 1012.9 1012.8 0.0
23/06:00am 22.1 26.2 20.7 92 0.9 CALM 0 2 0 1 1012.5 1012.4 0.0
23/05:30am 21.9 25.4 20.4 91 1.0 SSW 2 6 1 3 1012.2 1012.1 0.0
23/05:00am 22.0 25.9 20.3 90 1.1 CALM 0 0 0 0 1012.0 1011.9 0.0
23/04:30am 22.2 25.9 20.7 91 1.0 NE 2 4 1 2 1011.9 1011.8 0.0
23/04:00am 22.1 26.0 20.4 90 1.1 CALM 0 0 0 0 1011.7 1011.6 0.0
23/03:30am 22.5 26.4 20.4 88 1.4 CALM 0 0 0 0 1011.7 1011.6 0.0
23/03:00am 22.9 27.1 21.0 89 1.2 CALM 0 0 0 0 1011.8 1011.7 0.0
23/02:30am 23.2 27.4 20.9 87 1.5 CALM 0 0 0 0 1011.8 1011.7 0.0
23/02:00am 23.6 27.9 21.1 86 1.6 CALM 0 0 0 0 1012.0 1011.9 0.0
23/01:30am 24.3 28.8 21.6 85 1.8 CALM 0 0 0 0 1012.2 1012.1 0.0
23/01:00am 25.1 29.5 22.8 87 1.6 NE 4 6 2 3 1012.3 1012.2 0.0
23/12:30am 25.5 30.0 23.0 86 1.7 ENE 4 6 2 3 1012.4 1012.3 0.0
23/12:00am 25.6 29.7 22.9 85 1.8 NE 6 7 3 4 1012.8 1012.7 0.0
 
Date/Time
CST
Temp
°C
App
Temp
°C
Dew
Point
°C
Rel
Hum
%
Delta-T
°C
Wind Press
QNH
hPa
Press
MSL
hPa
Rain since
9am
mm
Dir  Spd
km/h
Gust
km/h
Spd
kts
Gust
kts
22/11:30pm 25.8 29.7 22.9 84 2.0 NE 7 17 4 9 1012.9 1012.8 0.0
22/11:00pm 25.9 29.5 23.0 84 2.0 NE 9 15 5 8 1012.9 1012.8 0.0
22/10:30pm 25.9 29.5 23.0 84 2.0 NE 9 13 5 7 1012.8 1012.7 0.0
22/10:00pm 25.6 29.8 23.1 86 1.7 NNE 6 11 3 6 1012.8 1012.7 0.0
22/09:30pm 25.3 29.3 22.8 86 1.7 NNE 6 9 3 5 1012.6 1012.5 0.0
22/09:00pm 25.3 29.2 22.6 85 1.8 NNE 6 7 3 4 1012.4 1012.3 0.0
22/08:30pm 25.4 29.3 22.5 84 2.0 NNE 6 11 3 6 1012.1 1012.0 0.0
22/08:00pm 25.6 29.8 22.5 83 2.1 NNE 4 7 2 4 1011.8 1011.7 0.0
22/07:30pm 25.9 29.7 22.4 81 2.4 NE 6 11 3 6 1011.7 1011.6 0.0
22/07:00pm 26.2 29.9 22.5 80 2.5 NNE 7 15 4 8 1011.4 1011.3 0.0
22/06:30pm 26.7 29.5 22.3 77 3.0 NNE 11 20 6 11 1011.0 1010.9 0.0
22/06:00pm 27.5 29.8 22.0 72 3.7 NE 13 20 7 11 1010.9 1010.8 0.0
22/05:30pm 28.9 31.0 21.7 65 4.8 NE 13 24 7 13 1010.7 1010.6 0.0
22/05:00pm 29.6 31.0 21.0 60 5.7 NE 15 24 8 13 1010.6 1010.5 0.0
22/04:30pm 31.0 32.5 20.6 54 6.9 NE 13 20 7 11 1010.5 1010.4 0.0
22/04:00pm 30.7 31.4 19.7 52 7.2 ENE 15 24 8 13 1010.6 1010.5 0.0
22/03:30pm 31.7 32.7 20.3 50 7.6 NE 15 24 8 13 1010.5 1010.4 0.0
22/03:00pm 31.5 31.8 19.5 49 7.9 NE 17 28 9 15 1010.6 1010.5 0.0
22/02:30pm 32.0 32.7 19.6 47 8.2 NE 15 24 8 13 1010.9 1010.8 0.0
22/02:00pm 32.1 32.8 20.4 50 7.8 NE 17 32 9 17 1011.2 1011.1 0.0
22/01:30pm 31.8 33.2 21.0 52 7.2 E 15 24 8 13 1011.6 1011.5 0.0
22/01:00pm 32.3 33.8 21.2 52 7.5 E 15 28 8 15 1012.0 1011.9 0.0
22/12:30pm 31.5 32.8 20.8 53 7.1 ENE 15 28 8 15 1012.5 1012.4 0.0
22/12:00pm 32.1 33.8 21.6 53 7.1 NE 15 26 8 14 1013.0 1012.9 0.0
22/11:30am 31.0 31.9 20.9 55 6.7 NE 17 30 9 16 1013.4 1013.3 0.0
22/11:00am 30.8 32.4 20.7 55 6.7 NE 13 24 7 13 1013.5 1013.4 0.0
22/10:30am 30.2 31.6 21.0 58 6.1 ENE 15 22 8 12 1013.7 1013.6 0.0
22/10:00am 31.4 34.3 22.4 59 6.1 ENE 11 20 6 11 1013.7 1013.6 0.0
22/09:30am 29.3 31.2 21.3 62 5.3 NE 13 24 7 13 1013.8 1013.7 0.0
22/09:00am 28.3 31.2 21.8 68 4.4 NE 9 20 5 11 1013.9 1013.8 0.0
22/08:30am 28.2 31.1 22.4 71 3.9 NE 11 19 6 10 1013.6 1013.5 0.0
22/08:00am 27.4 30.6 22.4 74 3.4 ENE 9 24 5 13 1013.3 1013.2 0.0
22/07:30am 25.1 30.3 23.5 91 1.1 ENE 2 7 1 4 1013.1 1013.0 0.0
22/07:00am 22.5 26.1 21.3 93 0.8 ENE 4 6 2 3 1012.7 1012.6 0.0
22/06:30am 22.0 25.9 20.3 90 1.1 CALM 0 0 0 0 1012.4 1012.3 0.0
22/06:00am 22.4 26.3 20.3 88 1.4 CALM 0 0 0 0 1012.0 1011.9 0.0
22/05:30am 22.6 26.6 20.5 88 1.4 CALM 0 0 0 0 1011.7 1011.6 0.0
22/05:00am 24.0 28.3 21.9 88 1.4 E 2 4 1 2 1011.5 1011.4 0.0
22/04:30am 24.2 28.2 22.1 88 1.4 ESE 4 9 2 5 1011.3 1011.2 0.0
22/04:00am 24.5 28.6 22.2 87 1.5 ESE 4 7 2 4 1011.3 1011.2 0.0
22/03:30am 25.0 29.2 22.5 86 1.7 ESE 4 7 2 4 1011.1 1011.0 0.0
22/03:00am 25.1 29.4 22.6 86 1.7 E 4 6 2 3 1011.1 1011.0 0.0
22/02:30am 25.3 29.3 22.8 86 1.7 ENE 6 11 3 6 1011.1 1011.0 0.0
22/02:00am 25.4 29.5 22.9 86 1.7 NE 6 9 3 5 1011.2 1011.1 0.0
22/01:30am 25.4 29.6 23.1 87 1.6 ENE 6 9 3 5 1011.3 1011.2 0.0
22/01:00am 25.3 29.4 23.0 87 1.6 ENE 6 11 3 6 1011.4 1011.3 0.0
22/12:30am 24.9 29.3 22.8 88 1.4 ENE 4 6 2 3 1011.6 1011.5 0.0
22/12:00am 24.8 29.0 22.5 87 1.5 NE 4 6 2 3 1011.6 1011.5 0.0

Other Formats:

Comma delimited format used in spreadsheet applications
http://www.bom.gov.au/fwo/IDD60801/IDD60801.94109.axf

JavaScript Object Notation format (JSON) in row-major order
http://www.bom.gov.au/fwo/IDD60801/IDD60801.94109.json